Flight Track Log - Related Links

Times and Time Zones

All times are in EDT time to prevent confusion due to time zone crossing. See the EJA829P flight status page for this flight to view local times or setup timezone preferences in your user account.

Time Position Orientation Groundspeed Altitude Reporting Facility
EDT Latitude Longitude Course Direction KTS MPH feet Rate Location/Type
Sun 05:40:16 PM 31.1353 -81.4461 10° North 410 472 2,500  Level Jacksonville Center
Sun 05:41:16 PM 31.2128 -81.4642 349° North 309 356 5,800 3,150 Climbing Jacksonville Center
Sun 05:42:16 PM 31.2919 -81.4486 10° North 273 314 8,800 2,750 Climbing Jacksonville Center
Sun 05:43:00 PM 31.8051 -81.2490 10° North  Level FlightAware Approximate
Sun 05:43:16 PM 31.3775 -81.4544 357° North 285 328 11,300  Level Jacksonville Center
Sun 05:44:16 PM 31.4611 -81.4678 352° North 321 369 13,100 2,017 Climbing Jacksonville Center
Sun 05:45:15 PM 31.5700 -81.4808 354° North 352 405 15,300 2,050 Climbing Jacksonville Center
Sun 05:46:16 PM 31.6661 -81.4939 353° North 352 405 17,200 1,800 Climbing Jacksonville Center
Sun 05:47:15 PM 31.7561 -81.5047 354° North 352 405 18,900 1,966 Climbing Jacksonville Center
Sun 05:48:15 PM 31.8625 -81.5203 353° North 352 405 21,100 1,884 Climbing Jacksonville Center
Sun 05:49:16 PM 31.9547 -81.5311 354° North 358 412 22,700 1,438 Climbing Jacksonville Center
Sun 05:50:16 PM 32.0569 -81.5444 354° North 369 425 24,000 1,450 Climbing Jacksonville Center
Sun 05:51:16 PM 32.1719 -81.5597 354° North 380 437 25,600 1,400 Climbing Jacksonville Center
Sun 05:52:16 PM 32.2683 -81.5708 354° North 380 437 26,800 1,200 Climbing Jacksonville Center
Sun 05:53:16 PM 32.3853 -81.5861 354° North 385 443 28,000 1,100 Climbing Jacksonville Center
Sun 05:54:16 PM 32.4939 -81.6019 353° North 391 450 29,000 1,000 Climbing Jacksonville Center
Sun 05:55:16 PM 32.5900 -81.6128 355° North 390 449 30,000 1,350 Climbing Jacksonville Center
Sun 05:56:16 PM 32.7092 -81.6261 355° North 390 449 31,700 1,500 Climbing Jacksonville Center
Sun 05:57:16 PM 32.8139 -81.6394 354° North 384 442 33,000 1,100 Climbing Jacksonville Center
Sun 05:58:16 PM 32.9203 -81.6528 354° North 384 442 33,900 500 Climbing Jacksonville Center
Sun 05:59:16 PM 33.0289 -81.6389 North 384 442 34,000 50 Climbing Jacksonville Center
Sun 06:00:16 PM 33.1431 -81.5975 17° North 391 450 34,000  Level Jacksonville Center
Sun 06:01:16 PM 33.2453 -81.5811 North 406 467 34,000  Level Jacksonville Center
Sun 06:02:16 PM 33.3683 -81.5769 North 421 484 34,000  Level Jacksonville Center
Sun 06:03:16 PM 33.4833 -81.6000 351° North 421 484 34,000 100 Level Jacksonville Center
Sun 06:04:16 PM 33.5986 -81.6433 343° North 421 484 34,200 1,000 Climbing Jacksonville Center
Sun 06:05:16 PM 33.7094 -81.6742 347° North 415 478 36,000 900 Climbing Jacksonville Center
Sun 06:06:16 PM 33.8222 -81.6925 352° North 408 470 36,000 250 Level Jacksonville Center
Sun 06:07:16 PM 33.9478 -81.7158 351° North 414 476 36,500 609 Climbing Jacksonville Center
Sun 06:09:33 PM 34.1889 -81.7811 347° North 408 470 38,000 457 Climbing Atlanta Center
Sun 06:10:33 PM 34.3064 -81.8158 346° North 414 476 38,000  Level Atlanta Center
Sun 06:11:33 PM 34.4197 -81.8481 347° North 414 476 38,000  Level Atlanta Center
Sun 06:12:33 PM 34.5389 -81.8625 354° North 420 483 38,000  Level Atlanta Center
Sun 06:13:33 PM 34.6578 -81.8644 359° North 420 483 38,000  Level Atlanta Center
Sun 06:14:33 PM 34.7792 -81.8842 352° North 432 497 38,000  Level Atlanta Center
Sun 06:15:33 PM 34.9006 -81.9039 352° North 432 497 38,000  Level Atlanta Center
Sun 06:16:33 PM 35.0200 -81.9286 350° North 432 497 38,000  Level Atlanta Center
Sun 06:17:33 PM 35.1478 -81.9636 347° North 432 497 38,000  Level Atlanta Center
Sun 06:18:33 PM 35.2653 -81.9961 347° North 432 497 38,000  Level Atlanta Center
Sun 06:19:33 PM 35.3806 -82.0289 347° North 432 497 38,000  Level Atlanta Center
Sun 06:20:33 PM 35.4978 -82.0617 347° North 432 497 38,000  Level Atlanta Center
Sun 06:21:33 PM 35.6131 -82.0947 347° North 432 497 38,000  Level Atlanta Center
Sun 06:22:33 PM 35.7306 -82.1278 347° North 425 489 38,000  Level Atlanta Center
Sun 06:23:33 PM 35.8353 -82.1536 349° North 425 489 38,000  Level Atlanta Center
Sun 06:24:33 PM 35.9506 -82.1867 347° North 425 489 38,000  Level Atlanta Center
Sun 06:25:33 PM 36.0678 -82.2200 347° North 425 489 38,000  Level Atlanta Center
Sun 06:26:33 PM 36.1786 -82.2483 348° North 418 481 38,000  Level Atlanta Center
Sun 06:28:51 PM 36.4494 -82.3269 347° North 428 493 38,000  Level Indianapolis Center
Sun 06:29:52 PM 36.5661 -82.3614 347° North 431 496 38,000  Level Indianapolis Center
Sun 06:30:54 PM 36.6833 -82.3936 348° North 433 498 38,000  Level Indianapolis Center
Sun 06:31:56 PM 36.8014 -82.4264 347° North 435 501 38,000  Level Indianapolis Center
Sun 06:32:57 PM 36.9381 -82.4667 347° North 435 501 38,000  Level Indianapolis Center
Sun 06:33:59 PM 37.0550 -82.5006 347° North 434 499 38,000  Level Indianapolis Center
Sun 06:35:01 PM 37.1725 -82.5361 346° North 436 502 38,000  Level Indianapolis Center
Sun 06:36:02 PM 37.2914 -82.5708 347° North 440 506 38,000  Level Indianapolis Center
Sun 06:37:04 PM 37.4106 -82.6075 346° North 442 509 38,000  Level Indianapolis Center
Sun 06:38:06 PM 37.5308 -82.6431 347° North 444 511 38,000  Level Indianapolis Center
Sun 06:39:07 PM 37.6714 -82.6856 347° North 445 512 38,000  Level Indianapolis Center
Sun 06:40:09 PM 37.7925 -82.7211 347° North 447 514 38,000  Level Indianapolis Center
Sun 06:41:11 PM 37.9136 -82.7569 347° North 447 514 38,000  Level Indianapolis Center
Sun 06:42:13 PM 38.0367 -82.7933 347° North 452 520 38,000  Level Indianapolis Center
Sun 06:43:14 PM 38.1597 -82.8325 346° North 454 522 38,000  Level Indianapolis Center
Sun 06:44:16 PM 38.2814 -82.8675 347° North 448 516 38,000  Level Indianapolis Center
Sun 06:45:18 PM 38.4225 -82.9103 347° North 446 513 38,000  Level Indianapolis Center
Sun 06:46:20 PM 38.5419 -82.9461 347° North 440 506 38,000  Level Indianapolis Center
Sun 06:47:21 PM 38.6481 -82.9797 346° North 445 512 38,000  Level Indianapolis Center
Sun 06:48:23 PM 38.7914 -83.0267 346° North 442 509 38,000  Level Indianapolis Center
Sun 06:49:25 PM 38.9106 -83.0650 346° North 438 504 38,000 -195 Level Indianapolis Center
Sun 06:50:26 PM 39.0272 -83.1044 345° North 434 499 37,600 -1,268 Descending Indianapolis Center
Sun 06:51:28 PM 39.1469 -83.1431 346° North 440 506 35,400 -2,081 Descending Indianapolis Center
Sun 06:52:30 PM 39.2678 -83.1833 346° North 438 504 33,300 -2,000 Descending Indianapolis Center
Sun 06:53:31 PM 39.3847 -83.2217 346° North 432 497 31,300 -1,951 Descending Indianapolis Center
Sun 06:54:33 PM 39.5003 -83.2603 346° North 426 490 29,300 -1,935 Descending Indianapolis Center
Sun 06:55:35 PM 39.6172 -83.2994 346° North 430 495 27,300 -2,000 Descending Indianapolis Center
Sun 06:56:36 PM 39.7317 -83.3375 346° North 426 490 25,200 -1,610 Descending Indianapolis Center
Sun 06:57:38 PM 39.8578 -83.3775 346° North 406 467 24,000 -629 Descending Indianapolis Center
Sun 06:58:40 PM 39.9661 -83.3772 360° North 405 466 23,900 -1,065 Descending Indianapolis Center
Sun 06:59:42 PM 40.0764 -83.3400 14° North 407 468 21,800 -1,902 Descending Indianapolis Center
Sun 07:00:43 PM 40.1686 -83.3861 339° North 386 444 20,000 -1,171 Descending Indianapolis Center
Sun 07:01:45 PM 40.2111 -83.5039 295° West 361 415 19,400 -1,306 Descending Indianapolis Center
Sun 07:02:47 PM 40.2400 -83.6342 286° West 367 422 17,300 -2,129 Descending Indianapolis Center
Sun 07:03:49 PM 40.2914 -83.7656 297° West 348 400 15,000 -2,081 Descending Indianapolis Center
Sun 07:04:51 PM 40.3456 -83.8653 305° West 333 383 13,000 -1,887 Descending Indianapolis Center
Sun 07:05:53 PM 40.4181 -83.9356 324° Northwest 322 371 11,100 -1,258 Descending Indianapolis Center
Sun 07:06:55 PM 40.5028 -83.9522 351° North 306 352 10,400 -1,366 Descending Indianapolis Center
Sun 07:07:56 PM 40.5794 -83.9564 358° North 278 320 8,300 -2,000 Descending Indianapolis Center
Sun 07:08:58 PM 40.6556 -83.9408 North 272 313 6,300 -1,935 Descending Indianapolis Center
Sun 07:10:00 PM 40.7303 -83.9106 17° North 276 318 4,300 -1,306 Descending Indianapolis Center
Sun 07:11:02 PM 40.8161 -83.8811 15° North 278 320 3,600 -677 Descending Indianapolis Center

Login

Don't have an account? Register now (free) for customized features, flight alerts, and more!